createdAt,value
2019-02-17T00:00:48.355Z,90.10
2019-02-17T00:02:55.065Z,87.90
2019-02-17T00:05:00.518Z,85.50
2019-02-17T00:07:09.360Z,86.30
2019-02-17T00:09:16.905Z,87.40
2019-02-17T00:11:23.009Z,89.20
2019-02-17T00:13:28.440Z,90.90
2019-02-17T00:15:35.598Z,91.30
2019-02-17T00:17:41.099Z,91.90
2019-02-17T00:19:47.357Z,92.70
2019-02-17T00:21:53.058Z,93.20
2019-02-17T00:23:59.342Z,94.00
2019-02-17T00:26:04.944Z,93.80
2019-02-17T00:28:12.790Z,92.60
2019-02-17T00:30:18.209Z,92.00
2019-02-17T00:32:26.094Z,93.80
2019-02-17T00:34:32.271Z,92.00
2019-02-17T00:36:38.672Z,91.00
2019-02-17T00:38:44.504Z,90.50
2019-02-17T00:40:53.468Z,91.30
2019-02-17T00:42:58.878Z,91.80
2019-02-17T00:45:05.360Z,90.80
2019-02-17T00:47:10.878Z,91.50
2019-02-17T00:49:16.741Z,91.60
2019-02-17T00:51:22.173Z,91.50
2019-02-17T00:53:29.632Z,92.40
2019-02-17T00:55:35.230Z,89.90
2019-02-17T00:57:40.873Z,88.80
2019-02-17T00:59:53.041Z,85.00
2019-02-17T01:01:58.505Z,85.10
2019-02-17T01:04:04.177Z,83.10
2019-02-17T01:06:09.726Z,83.30
2019-02-17T01:08:15.193Z,85.00
2019-02-17T01:10:20.701Z,87.40
2019-02-17T01:12:27.726Z,87.00
2019-02-17T01:14:33.432Z,86.80
2019-02-17T01:16:39.057Z,86.80
2019-02-17T01:18:53.096Z,86.20
2019-02-17T01:20:58.591Z,87.20
2019-02-17T01:23:04.143Z,88.70
2019-02-17T01:25:12.564Z,91.60
2019-02-17T01:27:18.066Z,91.20
2019-02-17T01:29:23.571Z,92.40
2019-02-17T01:31:30.206Z,93.00
2019-02-17T01:33:37.013Z,91.30
2019-02-17T01:35:42.666Z,90.90
2019-02-17T01:37:49.997Z,90.60
2019-02-17T01:39:55.749Z,80.90
2019-02-17T01:42:04.113Z,83.10
2019-02-17T01:44:12.125Z,75.20
2019-02-17T01:46:17.769Z,74.20
2019-02-17T01:48:23.261Z,76.70
2019-02-17T01:50:31.002Z,78.30
2019-02-17T01:52:36.436Z,75.60
2019-02-17T01:54:42.654Z,73.70
2019-02-17T01:56:49.850Z,74.90
2019-02-17T01:58:55.730Z,74.70
2019-02-17T02:01:01.578Z,76.40
2019-02-17T02:03:13.152Z,78.10
2019-02-17T02:05:18.542Z,77.70
2019-02-17T02:07:24.278Z,78.90
2019-02-17T02:09:29.742Z,81.40
2019-02-17T02:11:35.862Z,81.80
2019-02-17T02:13:41.395Z,83.70
2019-02-17T02:15:46.917Z,83.20
2019-02-17T02:17:52.409Z,84.20
2019-02-17T02:19:58.646Z,84.20
2019-02-17T02:22:13.446Z,83.50
2019-02-17T02:24:18.925Z,82.70
2019-02-17T02:26:24.849Z,81.50
2019-02-17T02:28:30.581Z,80.60
2019-02-17T02:30:36.135Z,80.40
2019-02-17T02:32:42.700Z,78.60
2019-02-17T02:34:54.311Z,75.80
2019-02-17T02:36:59.726Z,72.10
2019-02-17T02:39:06.472Z,71.40
2019-02-17T02:41:12.970Z,71.10
2019-02-17T02:43:19.410Z,70.60
2019-02-17T02:45:24.833Z,69.10
2019-02-17T02:47:31.988Z,68.60
2019-02-17T02:49:37.534Z,69.00
2019-02-17T02:51:43.041Z,67.30
2019-02-17T02:53:50.446Z,67.70
2019-02-17T02:55:57.667Z,68.30
2019-02-17T02:58:03.062Z,67.40
2019-02-17T03:00:09.963Z,65.90
2019-02-17T03:02:15.477Z,68.70
2019-02-17T03:04:20.921Z,68.10
2019-02-17T03:06:45.377Z,70.30
2019-02-17T03:08:50.781Z,71.90
2019-02-17T03:10:56.518Z,70.30
2019-02-17T03:13:02.134Z,68.80
2019-02-17T03:15:07.860Z,68.50
2019-02-17T03:17:13.313Z,67.30
2019-02-17T03:19:18.781Z,65.90
2019-02-17T03:21:24.630Z,65.50
2019-02-17T03:23:30.183Z,65.00
2019-02-17T03:25:41.535Z,65.20
2019-02-17T03:27:47.711Z,64.90
2019-02-17T03:30:04.348Z,65.70
2019-02-17T03:32:00.639Z,65.40
2019-02-17T03:34:06.211Z,65.70
2019-02-17T03:36:11.784Z,66.40
2019-02-17T03:38:20.745Z,65.70
2019-02-17T03:40:26.235Z,65.40
2019-02-17T03:42:31.681Z,66.10
2019-02-17T03:44:37.149Z,65.50
2019-02-17T03:46:42.707Z,66.60
2019-02-17T03:48:48.628Z,63.50
2019-02-17T03:50:58.822Z,63.10
2019-02-17T03:53:04.470Z,64.50
2019-02-17T03:55:10.690Z,63.80
2019-02-17T03:57:18.225Z,63.10
2019-02-17T03:59:23.716Z,62.00
2019-02-17T04:01:29.466Z,62.60
2019-02-17T04:03:34.885Z,63.30
2019-02-17T04:05:40.290Z,61.50
2019-02-17T04:07:45.950Z,62.10
2019-02-17T04:09:51.760Z,61.70
2019-02-17T04:11:57.141Z,62.30
2019-02-17T04:14:02.563Z,63.20
2019-02-17T04:16:08.125Z,62.40
2019-02-17T04:18:13.877Z,61.70
2019-02-17T04:20:19.297Z,60.70
2019-02-17T04:22:24.746Z,61.20
2019-02-17T04:24:30.256Z,61.10
2019-02-17T04:26:35.687Z,62.50
2019-02-17T04:28:41.131Z,65.00
2019-02-17T04:30:46.593Z,65.20
2019-02-17T04:32:52.562Z,65.00
2019-02-17T04:34:58.051Z,65.40
2019-02-17T04:37:03.585Z,66.10
2019-02-17T04:39:09.742Z,67.20
2019-02-17T04:41:15.170Z,66.30
2019-02-17T04:43:21.190Z,65.90
2019-02-17T04:45:26.607Z,66.90
2019-02-17T04:47:32.514Z,65.30
2019-02-17T04:49:37.973Z,67.00
2019-02-17T04:51:43.388Z,67.10
2019-02-17T04:53:48.883Z,67.60
2019-02-17T04:55:54.310Z,64.20
2019-02-17T04:58:00.368Z,64.60
2019-02-17T05:00:06.790Z,63.70
2019-02-17T05:02:16.297Z,64.20
2019-02-17T05:04:21.752Z,65.00
2019-02-17T05:06:27.330Z,65.70
2019-02-17T05:08:32.801Z,64.80
2019-02-17T05:10:38.237Z,64.60
2019-02-17T05:12:44.925Z,63.80
2019-02-17T05:14:50.359Z,64.10
2019-02-17T05:16:55.987Z,64.00
2019-02-17T05:19:02.007Z,64.90
2019-02-17T05:21:10.678Z,64.30
2019-02-17T05:23:16.215Z,64.90
2019-02-17T05:25:24.100Z,64.10
2019-02-17T05:27:29.886Z,64.40
2019-02-17T05:29:35.684Z,65.10
2019-02-17T05:31:41.322Z,65.50
2019-02-17T05:33:47.205Z,65.00
2019-02-17T05:35:52.655Z,65.40
2019-02-17T05:38:01.894Z,66.30
2019-02-17T05:40:08.993Z,66.90
2019-02-17T05:42:14.441Z,66.60
2019-02-17T05:44:20.062Z,64.80
2019-02-17T05:46:25.753Z,64.20
2019-02-17T05:48:31.229Z,64.30
2019-02-17T05:50:37.960Z,62.60
2019-02-17T05:52:43.407Z,64.70
2019-02-17T05:54:50.433Z,64.30
2019-02-17T05:56:57.325Z,64.10
2019-02-17T05:59:02.896Z,63.70
2019-02-17T06:01:08.284Z,64.10
2019-02-17T06:03:14.557Z,63.70
2019-02-17T06:05:20.039Z,65.10
2019-02-17T06:07:25.434Z,65.30
2019-02-17T06:09:30.941Z,65.10
2019-02-17T06:11:36.414Z,65.00
2019-02-17T06:13:42.372Z,66.00
2019-02-17T06:15:49.638Z,66.00
2019-02-17T06:17:55.334Z,64.50
2019-02-17T06:20:00.942Z,66.00
2019-02-17T06:22:06.334Z,64.90
2019-02-17T06:24:12.459Z,65.50
2019-02-17T06:26:18.390Z,65.30
2019-02-17T06:28:29.260Z,64.80
2019-02-17T06:30:36.078Z,65.40
2019-02-17T06:32:41.567Z,66.20
2019-02-17T06:34:53.137Z,64.40
2019-02-17T06:36:58.784Z,65.60
2019-02-17T06:39:05.699Z,64.80
2019-02-17T06:41:11.257Z,62.20
2019-02-17T06:43:16.781Z,63.30
2019-02-17T06:45:22.549Z,64.70
2019-02-17T06:47:32.293Z,63.50
2019-02-17T06:49:41.862Z,63.00
2019-02-17T06:51:47.254Z,60.20
2019-02-17T06:53:54.735Z,61.30
2019-02-17T06:56:27.961Z,61.00
2019-02-17T06:58:33.366Z,61.50
2019-02-17T07:00:44.494Z,60.50
2019-02-17T07:02:50.113Z,59.30
2019-02-17T07:05:20.747Z,58.30
2019-02-17T07:07:28.979Z,58.80
2019-02-17T07:09:34.338Z,58.30
2019-02-17T07:11:40.253Z,57.40
2019-02-17T07:13:45.898Z,57.40
2019-02-17T07:15:52.065Z,56.80
2019-02-17T07:17:59.234Z,57.10
2019-02-17T07:20:09.769Z,55.50
2019-02-17T07:22:15.362Z,54.20
2019-02-17T07:24:20.749Z,53.70
2019-02-17T07:26:26.235Z,53.60
2019-02-17T07:28:31.940Z,53.90
2019-02-17T07:30:37.421Z,53.60
2019-02-17T07:32:42.961Z,52.80
2019-02-17T07:34:48.518Z,52.30
2019-02-17T07:36:54.659Z,49.60
2019-02-17T07:39:00.209Z,46.40
2019-02-17T07:41:05.634Z,44.70
2019-02-17T07:43:11.080Z,43.00
2019-02-17T07:45:16.645Z,41.10
2019-02-17T07:47:23.089Z,40.00
2019-02-17T07:49:28.517Z,38.70
2019-02-17T07:51:42.587Z,38.40
2019-02-17T07:53:48.369Z,37.80
2019-02-17T07:55:53.803Z,37.20
2019-02-17T07:58:05.610Z,36.20
2019-02-17T08:00:11.553Z,36.80
2019-02-17T08:02:16.968Z,36.30
2019-02-17T08:04:22.790Z,35.40
2019-02-17T08:06:27.904Z,35.10
2019-02-17T08:08:33.142Z,35.20
2019-02-17T08:10:41.647Z,34.50
2019-02-17T08:12:47.322Z,33.40
2019-02-17T08:14:52.459Z,32.60
2019-02-17T08:16:58.034Z,32.70
2019-02-17T08:19:03.335Z,31.60
2019-02-17T08:21:09.201Z,32.20
2019-02-17T08:23:14.855Z,31.90
2019-02-17T08:25:22.129Z,31.10
2019-02-17T08:27:27.164Z,30.90
2019-02-17T08:29:33.366Z,31.70
2019-02-17T08:31:38.515Z,29.70
2019-02-17T08:33:44.555Z,30.50
2019-02-17T08:35:50.916Z,31.20
2019-02-17T08:37:57.362Z,31.00
2019-02-17T08:40:02.746Z,31.50
2019-02-17T08:42:07.901Z,30.90
2019-02-17T08:44:14.998Z,30.60
2019-02-17T08:46:20.210Z,30.90
2019-02-17T08:48:27.106Z,30.40
2019-02-17T08:50:33.730Z,30.60
2019-02-17T08:52:39.314Z,30.70
2019-02-17T08:54:44.437Z,29.60
2019-02-17T08:56:52.658Z,30.20
2019-02-17T08:58:57.931Z,29.80
2019-02-17T09:01:03.638Z,29.70
2019-02-17T09:03:11.502Z,28.70
2019-02-17T09:05:17.968Z,28.60
2019-02-17T09:07:23.142Z,28.40
2019-02-17T09:09:28.699Z,28.70
2019-02-17T09:11:34.345Z,28.10
2019-02-17T09:13:40.995Z,28.30
2019-02-17T09:15:47.237Z,27.50
2019-02-17T09:17:52.581Z,28.10
2019-02-17T09:19:58.203Z,27.10
2019-02-17T09:22:03.449Z,27.60
2019-02-17T09:24:09.572Z,27.30
2019-02-17T09:26:14.758Z,27.30
2019-02-17T09:28:28.121Z,27.20
2019-02-17T09:30:33.833Z,26.70
2019-02-17T09:32:39.282Z,26.40
2019-02-17T09:34:44.793Z,26.40
2019-02-17T09:36:50.220Z,25.80
2019-02-17T09:38:55.362Z,26.90
2019-02-17T09:41:02.541Z,25.20
2019-02-17T09:43:07.717Z,26.00
2019-02-17T09:45:13.706Z,25.90
2019-02-17T09:47:30.837Z,25.10
2019-02-17T09:49:35.981Z,25.80
2019-02-17T09:51:41.593Z,24.70
2019-02-17T09:53:48.107Z,25.80
2019-02-17T09:55:55.469Z,25.60
2019-02-17T09:58:00.610Z,24.50
2019-02-17T10:00:05.917Z,25.70
2019-02-17T10:02:11.110Z,25.20
2019-02-17T10:04:16.624Z,24.90
2019-02-17T10:06:22.108Z,24.10
2019-02-17T10:08:27.488Z,25.10
2019-02-17T10:10:32.919Z,23.70
2019-02-17T10:12:38.800Z,24.70
2019-02-17T10:14:45.423Z,24.40
2019-02-17T10:16:51.660Z,25.10
2019-02-17T10:18:57.602Z,23.70
2019-02-17T10:21:03.346Z,23.70
2019-02-17T10:23:08.971Z,24.60
2019-02-17T10:25:14.470Z,26.10
2019-02-17T10:27:19.797Z,24.10
2019-02-17T10:29:25.330Z,22.40
2019-02-17T10:31:31.658Z,23.70
2019-02-17T10:33:36.986Z,24.40
2019-02-17T10:35:42.390Z,23.40
2019-02-17T10:37:48.014Z,23.30
2019-02-17T10:39:53.736Z,24.10
2019-02-17T10:42:00.150Z,23.70
2019-02-17T10:44:09.158Z,24.10
2019-02-17T10:46:15.556Z,23.70
2019-02-17T10:48:21.018Z,23.10
2019-02-17T10:50:28.161Z,22.80
2019-02-17T10:52:33.413Z,23.90
2019-02-17T10:54:38.658Z,23.60
2019-02-17T10:56:44.037Z,23.40
2019-02-17T10:58:49.193Z,23.00
2019-02-17T11:00:54.787Z,24.00
2019-02-17T11:03:10.218Z,24.50
2019-02-17T11:05:15.570Z,24.00
2019-02-17T11:07:21.037Z,23.30
2019-02-17T11:09:26.405Z,24.60
2019-02-17T11:11:33.701Z,24.00
2019-02-17T11:13:39.018Z,24.90
2019-02-17T11:15:44.259Z,25.40
2019-02-17T11:17:50.461Z,23.40
2019-02-17T11:19:56.278Z,23.30
2019-02-17T11:22:04.848Z,24.50
2019-02-17T11:24:11.225Z,25.10
2019-02-17T11:26:17.426Z,26.00
2019-02-17T11:28:24.637Z,26.00
2019-02-17T11:30:30.939Z,26.40
2019-02-17T11:32:37.224Z,27.50
2019-02-17T11:34:43.143Z,27.50
2019-02-17T11:36:49.779Z,28.10
2019-02-17T11:38:57.822Z,27.60
2019-02-17T11:41:06.535Z,28.70
2019-02-17T11:43:11.890Z,26.90
2019-02-17T11:45:17.701Z,26.70
2019-02-17T11:47:25.266Z,27.20
2019-02-17T11:49:30.530Z,26.90
2019-02-17T11:51:36.327Z,27.40
2019-02-17T11:53:41.590Z,28.30
2019-02-17T11:55:47.076Z,28.20
2019-02-17T11:57:52.217Z,28.50
2019-02-17T11:59:57.593Z,29.70
2019-02-17T12:02:03.778Z,28.60
2019-02-17T12:04:09.377Z,28.20
2019-02-17T12:06:14.577Z,28.50
2019-02-17T12:08:21.349Z,28.90
2019-02-17T12:10:26.958Z,28.00
2019-02-17T12:12:33.158Z,28.00
2019-02-17T12:14:38.381Z,26.70
2019-02-17T12:16:43.907Z,27.80
2019-02-17T12:18:52.831Z,27.20
2019-02-17T12:21:16.923Z,26.50
2019-02-17T12:23:27.038Z,27.30
2019-02-17T12:25:49.797Z,28.20
2019-02-17T12:28:00.570Z,26.70
2019-02-17T12:30:09.300Z,27.10
2019-02-17T12:32:23.682Z,28.20
2019-02-17T12:34:29.133Z,28.00
2019-02-17T12:36:34.581Z,26.80
2019-02-17T12:38:40.269Z,26.90
2019-02-17T12:40:45.398Z,27.30
2019-02-17T12:42:51.205Z,27.50
2019-02-17T12:44:57.151Z,27.90
2019-02-17T12:47:02.405Z,27.60
2019-02-17T12:49:08.070Z,27.30
2019-02-17T12:51:13.439Z,27.40
2019-02-17T12:53:20.458Z,27.50
2019-02-17T12:55:25.974Z,26.30
2019-02-17T12:57:32.460Z,26.80
2019-02-17T12:59:37.773Z,26.30
2019-02-17T13:01:45.297Z,26.40
2019-02-17T13:03:49.857Z,26.70
2019-02-17T13:05:55.303Z,25.30
2019-02-17T13:08:00.457Z,25.30
2019-02-17T13:10:06.030Z,25.50
2019-02-17T13:12:11.246Z,25.60
2019-02-17T13:14:16.472Z,25.80
2019-02-17T13:16:29.477Z,25.80
2019-02-17T13:18:34.834Z,25.70
2019-02-17T13:20:40.234Z,24.90
2019-02-17T13:22:45.565Z,25.40
2019-02-17T13:24:50.978Z,25.00
2019-02-17T13:26:56.156Z,25.80
2019-02-17T13:29:03.457Z,25.50
2019-02-17T13:31:09.309Z,25.00
2019-02-17T13:33:14.653Z,25.70
2019-02-17T13:35:21.296Z,24.60
2019-02-17T13:37:26.527Z,25.50
2019-02-17T13:39:31.685Z,26.20
2019-02-17T13:41:36.966Z,25.90
2019-02-17T13:43:42.421Z,25.30
2019-02-17T13:45:48.178Z,26.20
2019-02-17T13:47:54.363Z,26.60
2019-02-17T13:49:59.845Z,26.40
2019-02-17T13:52:04.983Z,26.20
2019-02-17T13:54:10.823Z,25.90
2019-02-17T13:56:16.038Z,26.70
2019-02-17T13:58:21.563Z,27.10
2019-02-17T14:00:26.868Z,28.00
2019-02-17T14:02:32.306Z,28.00
2019-02-17T14:04:37.649Z,27.40
2019-02-17T14:06:43.187Z,27.30
2019-02-17T14:08:48.522Z,26.40
2019-02-17T14:10:53.973Z,27.20
2019-02-17T14:13:05.430Z,26.30
2019-02-17T14:15:12.341Z,26.80
2019-02-17T14:17:17.742Z,27.20
2019-02-17T14:19:22.873Z,27.70
2019-02-17T14:21:28.016Z,27.60
2019-02-17T14:23:33.898Z,27.10
2019-02-17T14:25:39.262Z,27.10
2019-02-17T14:27:44.650Z,27.20
2019-02-17T14:29:49.878Z,26.90
2019-02-17T14:31:56.465Z,27.20
2019-02-17T14:34:01.710Z,27.50
2019-02-17T14:36:07.341Z,27.50
2019-02-17T14:38:12.518Z,26.50
2019-02-17T14:40:18.076Z,26.40
2019-02-17T14:42:24.323Z,26.90
2019-02-17T14:44:34.707Z,27.40
2019-02-17T14:46:46.629Z,27.10
2019-02-17T14:48:51.484Z,27.10
2019-02-17T14:50:58.183Z,27.20
2019-02-17T14:53:03.509Z,27.20
2019-02-17T14:55:08.747Z,27.70
2019-02-17T14:57:15.922Z,30.00
2019-02-17T14:59:21.122Z,29.40
2019-02-17T15:01:26.962Z,31.00
2019-02-17T15:03:32.538Z,31.20
2019-02-17T15:05:37.689Z,31.90
2019-02-17T15:07:43.149Z,32.70
2019-02-17T15:09:49.042Z,32.70
2019-02-17T15:11:54.251Z,34.40
2019-02-17T15:13:59.927Z,34.70
2019-02-17T15:16:11.254Z,35.00
2019-02-17T15:18:16.639Z,37.80
2019-02-17T15:20:22.230Z,39.80
2019-02-17T15:22:27.945Z,41.40
2019-02-17T15:24:33.373Z,41.40
2019-02-17T15:26:39.397Z,40.80
2019-02-17T15:28:51.227Z,40.50
2019-02-17T15:30:54.736Z,39.30
2019-02-17T15:33:03.977Z,40.40
2019-02-17T15:35:08.003Z,41.20
2019-02-17T15:37:13.541Z,41.00
2019-02-17T15:39:19.617Z,40.20
2019-02-17T15:41:25.211Z,40.00
2019-02-17T15:43:31.081Z,41.10
2019-02-17T15:45:37.677Z,41.30
2019-02-17T15:47:45.189Z,42.00
2019-02-17T15:49:50.876Z,42.70
2019-02-17T15:51:56.481Z,42.80
2019-02-17T15:54:02.046Z,43.10
2019-02-17T15:56:08.194Z,43.20
2019-02-17T15:58:14.679Z,43.00
2019-02-17T16:00:20.481Z,43.30
2019-02-17T16:02:25.948Z,43.70
2019-02-17T16:04:31.565Z,44.00
2019-02-17T16:06:37.190Z,44.00
2019-02-17T16:08:42.997Z,44.30
2019-02-17T16:10:48.756Z,44.70
2019-02-17T16:12:57.322Z,45.40
2019-02-17T16:15:02.925Z,45.70
2019-02-17T16:17:08.923Z,46.00
2019-02-17T16:19:16.094Z,46.30
2019-02-17T16:21:23.528Z,47.00
2019-02-17T16:23:28.809Z,47.60
2019-02-17T16:25:34.244Z,48.30
2019-02-17T16:27:40.762Z,48.80
2019-02-17T16:29:47.014Z,49.30
2019-02-17T16:31:52.949Z,49.80
2019-02-17T16:33:58.810Z,50.40
2019-02-17T16:36:04.238Z,51.60
2019-02-17T16:38:11.411Z,52.30
2019-02-17T16:40:16.941Z,53.80
2019-02-17T16:42:22.565Z,55.90
2019-02-17T16:44:28.143Z,57.20
2019-02-17T16:46:33.662Z,57.30
2019-02-17T16:48:40.277Z,58.60
2019-02-17T16:50:45.740Z,58.80
2019-02-17T16:52:51.138Z,58.80
2019-02-17T16:54:56.675Z,59.60
2019-02-17T16:57:02.342Z,60.60
2019-02-17T16:59:08.562Z,61.50
2019-02-17T17:01:14.541Z,62.30
2019-02-17T17:03:20.853Z,63.90
2019-02-17T17:05:26.510Z,64.40
2019-02-17T17:07:32.083Z,67.70
2019-02-17T17:09:45.837Z,67.50
2019-02-17T17:11:51.457Z,68.00
2019-02-17T17:13:57.634Z,68.80
2019-02-17T17:16:03.350Z,68.30
2019-02-17T17:18:09.726Z,68.60
2019-02-17T17:20:15.596Z,69.90
2019-02-17T17:22:21.707Z,71.90
2019-02-17T17:24:27.166Z,75.80
2019-02-17T17:26:34.337Z,79.90
2019-02-17T17:28:41.815Z,79.90
2019-02-17T17:30:47.411Z,80.20
2019-02-17T17:32:53.171Z,81.10
2019-02-17T17:34:59.542Z,82.10
2019-02-17T17:37:06.688Z,88.20
2019-02-17T17:39:12.586Z,90.60
2019-02-17T17:41:18.246Z,92.60
2019-02-17T17:43:24.458Z,92.90
2019-02-17T17:45:29.918Z,96.20
2019-02-17T17:47:35.703Z,98.50
2019-02-17T17:49:41.101Z,97.90
2019-02-17T17:51:47.025Z,97.80
2019-02-17T17:53:59.321Z,99.90
2019-02-17T17:56:04.810Z,99.90
2019-02-17T17:58:10.218Z,99.90
2019-02-17T18:00:17.698Z,99.90
2019-02-17T18:02:23.172Z,99.90
2019-02-17T18:04:29.762Z,99.90
2019-02-17T18:06:35.437Z,99.90
2019-02-17T18:08:43.941Z,99.90
2019-02-17T18:10:50.150Z,99.90
2019-02-17T18:12:55.889Z,99.90
2019-02-17T18:15:01.314Z,99.90
2019-02-17T18:17:09.858Z,99.90
2019-02-17T18:19:15.521Z,99.90
2019-02-17T18:21:21.110Z,99.90
2019-02-17T18:23:26.703Z,99.90
2019-02-17T18:25:41.277Z,99.90
2019-02-17T18:27:49.440Z,99.90
2019-02-17T18:29:54.942Z,99.90
2019-02-17T18:32:01.266Z,99.90
2019-02-17T18:34:06.730Z,99.90
2019-02-17T18:36:12.330Z,99.90
2019-02-17T18:38:18.841Z,99.90
2019-02-17T18:40:24.697Z,99.90
2019-02-17T18:42:30.137Z,99.90
2019-02-17T18:44:36.974Z,99.90
2019-02-17T18:46:42.842Z,99.90
2019-02-17T18:48:49.013Z,99.90
2019-02-17T18:50:59.082Z,99.90
2019-02-17T18:53:01.795Z,99.90
2019-02-17T18:55:08.391Z,99.90
2019-02-17T18:57:14.209Z,99.90
2019-02-17T18:59:19.959Z,99.90
2019-02-17T19:01:28.343Z,99.90
2019-02-17T19:03:33.963Z,99.90
2019-02-17T19:05:40.381Z,99.90
2019-02-17T19:07:46.251Z,99.90
2019-02-17T19:09:52.041Z,99.90
2019-02-17T19:11:58.637Z,99.90
2019-02-17T19:14:04.281Z,99.90
2019-02-17T19:16:28.581Z,99.90
2019-02-17T19:18:34.676Z,99.90
2019-02-17T19:20:42.895Z,99.90
2019-02-17T19:22:50.167Z,99.90
2019-02-17T19:24:56.366Z,99.90
2019-02-17T19:27:02.762Z,99.90
2019-02-17T19:29:11.813Z,99.90
2019-02-17T19:31:20.180Z,99.90
2019-02-17T19:33:27.946Z,99.90
2019-02-17T19:35:41.516Z,99.90
2019-02-17T19:37:41.043Z,99.90
2019-02-17T19:39:47.143Z,99.90
2019-02-17T19:42:10.247Z,99.90
2019-02-17T19:44:18.743Z,99.90
2019-02-17T19:46:24.591Z,99.90
2019-02-17T19:48:30.713Z,99.90
2019-02-17T19:50:38.663Z,99.90
2019-02-17T19:52:44.154Z,99.90
2019-02-17T19:55:01.497Z,99.90
2019-02-17T19:57:06.966Z,99.90
2019-02-17T19:59:15.634Z,99.90
2019-02-17T20:01:21.226Z,99.90
2019-02-17T20:03:44.311Z,99.90
2019-02-17T20:05:53.561Z,99.90
2019-02-17T20:08:01.801Z,99.90
2019-02-17T20:10:09.378Z,99.90
2019-02-17T20:12:15.401Z,99.90
2019-02-17T20:14:21.382Z,99.90
2019-02-17T20:16:27.141Z,99.90
2019-02-17T20:18:32.809Z,99.90
2019-02-17T20:20:38.547Z,99.90
2019-02-17T20:22:43.972Z,99.90
2019-02-17T20:24:49.800Z,99.90
2019-02-17T20:26:55.417Z,99.90
2019-02-17T20:29:00.947Z,99.90
2019-02-17T20:31:06.987Z,99.90
2019-02-17T20:33:12.703Z,99.90
2019-02-17T20:35:18.636Z,99.90
2019-02-17T20:37:25.430Z,99.90
2019-02-17T20:39:31.451Z,99.90
2019-02-17T20:41:37.193Z,99.90
2019-02-17T20:43:42.593Z,99.90
2019-02-17T20:45:54.238Z,99.90
2019-02-17T20:48:00.395Z,99.90
2019-02-17T20:50:06.126Z,99.90
2019-02-17T20:52:17.720Z,99.90
2019-02-17T20:54:23.461Z,99.90
2019-02-17T20:56:29.043Z,99.90
2019-02-17T20:58:36.290Z,99.90
2019-02-17T21:00:43.585Z,99.90
2019-02-17T21:02:50.363Z,99.90
2019-02-17T21:04:59.222Z,99.90
2019-02-17T21:07:05.308Z,99.90
2019-02-17T21:09:11.105Z,99.90
2019-02-17T21:11:16.965Z,99.90
2019-02-17T21:13:23.335Z,99.90
2019-02-17T21:15:29.716Z,99.90
2019-02-17T21:17:36.272Z,99.90
2019-02-17T21:19:42.144Z,99.90
2019-02-17T21:21:47.674Z,99.90
2019-02-17T21:24:11.705Z,99.90
2019-02-17T21:26:17.535Z,99.90
2019-02-17T21:28:23.482Z,99.90
2019-02-17T21:30:33.375Z,99.90
2019-02-17T21:32:39.223Z,99.90
2019-02-17T21:34:44.918Z,99.90
2019-02-17T21:36:50.662Z,99.90
2019-02-17T21:38:58.845Z,99.90
2019-02-17T21:41:09.342Z,99.90
2019-02-17T21:43:12.094Z,99.90
2019-02-17T21:45:20.835Z,99.90
2019-02-17T21:47:27.806Z,99.90
2019-02-17T21:49:37.765Z,99.90
2019-02-17T21:51:43.582Z,99.90
2019-02-17T21:53:50.725Z,99.90
2019-02-17T21:55:58.114Z,99.90
2019-02-17T21:58:03.995Z,99.90
2019-02-17T22:00:13.255Z,99.90
2019-02-17T22:02:22.651Z,99.90
2019-02-17T22:04:28.170Z,99.90
2019-02-17T22:06:36.124Z,99.90
2019-02-17T22:08:43.384Z,99.90
2019-02-17T22:10:49.392Z,99.90
2019-02-17T22:12:58.222Z,99.90
2019-02-17T22:15:07.513Z,99.90
2019-02-17T22:17:13.483Z,99.90
2019-02-17T22:19:20.914Z,99.90
2019-02-17T22:21:28.676Z,99.90
2019-02-17T22:23:39.863Z,99.90
2019-02-17T22:25:45.205Z,99.90
2019-02-17T22:28:00.954Z,99.90
2019-02-17T22:30:09.551Z,99.90
2019-02-17T22:32:17.230Z,99.90
2019-02-17T22:34:23.899Z,99.90
2019-02-17T22:36:32.110Z,99.90
2019-02-17T22:38:38.203Z,99.90
2019-02-17T22:40:56.238Z,99.90
2019-02-17T22:43:03.800Z,99.90
2019-02-17T22:45:09.861Z,99.90
2019-02-17T22:47:16.226Z,99.90
2019-02-17T22:49:25.935Z,99.90
2019-02-17T22:51:32.794Z,99.90
2019-02-17T22:53:43.675Z,99.90
2019-02-17T22:55:49.811Z,99.90
2019-02-17T22:57:55.899Z,99.90
2019-02-17T23:00:01.754Z,99.90
2019-02-17T23:02:07.502Z,99.90
2019-02-17T23:04:13.609Z,99.90
2019-02-17T23:06:22.906Z,98.10
2019-02-17T23:08:28.330Z,96.90
2019-02-17T23:10:35.149Z,99.60
2019-02-17T23:12:41.718Z,99.90
2019-02-17T23:14:47.995Z,99.90
2019-02-17T23:16:57.757Z,99.90
2019-02-17T23:19:05.535Z,99.90
2019-02-17T23:21:12.298Z,99.90
2019-02-17T23:23:18.693Z,99.90
2019-02-17T23:25:25.174Z,99.90
2019-02-17T23:27:30.925Z,99.90
2019-02-17T23:29:36.914Z,99.90
2019-02-17T23:31:45.229Z,99.90
2019-02-17T23:33:50.792Z,99.40
2019-02-17T23:35:56.966Z,96.90
2019-02-17T23:38:02.710Z,95.40
2019-02-17T23:40:09.369Z,97.40
2019-02-17T23:42:15.086Z,96.20
2019-02-17T23:44:23.426Z,96.60
2019-02-17T23:46:28.954Z,94.70
2019-02-17T23:48:36.222Z,93.80
2019-02-17T23:50:42.895Z,94.30
2019-02-17T23:52:48.521Z,91.50
2019-02-17T23:54:54.187Z,90.50
2019-02-17T23:57:00.461Z,91.10
2019-02-17T23:59:06.253Z,90.50
